sensor_id;sensor_type;location;lat;lon;timestamp;P1;durP1;ratioP1;P2;durP2;ratioP2
58974;SDS011;44751;52.236;5.178;2022-12-10T00:02:14;61.67;;;28.20;;
58974;SDS011;44751;52.236;5.178;2022-12-10T00:04:41;66.05;;;29.33;;
58974;SDS011;44751;52.236;5.178;2022-12-10T00:07:07;67.53;;;28.95;;
58974;SDS011;44751;52.236;5.178;2022-12-10T00:09:34;63.47;;;27.38;;
58974;SDS011;44751;52.236;5.178;2022-12-10T00:12:03;63.50;;;28.27;;
58974;SDS011;44751;52.236;5.178;2022-12-10T00:14:30;69.15;;;29.92;;
58974;SDS011;44751;52.236;5.178;2022-12-10T00:16:57;65.97;;;29.13;;
58974;SDS011;44751;52.236;5.178;2022-12-10T00:19:23;64.20;;;28.70;;
58974;SDS011;44751;52.236;5.178;2022-12-10T00:21:50;68.15;;;29.65;;
58974;SDS011;44751;52.236;5.178;2022-12-10T00:24:17;61.13;;;27.48;;
58974;SDS011;44751;52.236;5.178;2022-12-10T00:26:45;67.32;;;27.88;;
58974;SDS011;44751;52.236;5.178;2022-12-10T00:29:12;68.10;;;29.75;;
58974;SDS011;44751;52.236;5.178;2022-12-10T00:31:39;71.97;;;29.67;;
58974;SDS011;44751;52.236;5.178;2022-12-10T00:34:07;63.28;;;28.23;;
58974;SDS011;44751;52.236;5.178;2022-12-10T00:36:37;67.43;;;28.80;;
58974;SDS011;44751;52.236;5.178;2022-12-10T00:39:10;68.03;;;29.52;;
58974;SDS011;44751;52.236;5.178;2022-12-10T00:41:40;68.40;;;28.23;;
58974;SDS011;44751;52.236;5.178;2022-12-10T00:44:06;66.50;;;27.85;;
58974;SDS011;44751;52.236;5.178;2022-12-10T00:46:33;71.55;;;30.17;;
58974;SDS011;44751;52.236;5.178;2022-12-10T00:49:00;63.58;;;27.98;;
58974;SDS011;44751;52.236;5.178;2022-12-10T00:51:28;65.35;;;27.73;;
58974;SDS011;44751;52.236;5.178;2022-12-10T00:53:55;70.97;;;29.05;;
58974;SDS011;44751;52.236;5.178;2022-12-10T00:56:23;68.97;;;27.63;;
58974;SDS011;44751;52.236;5.178;2022-12-10T00:58:52;68.25;;;27.40;;
58974;SDS011;44751;52.236;5.178;2022-12-10T01:01:21;70.53;;;27.15;;
58974;SDS011;44751;52.236;5.178;2022-12-10T01:03:57;76.82;;;28.58;;
58974;SDS011;44751;52.236;5.178;2022-12-10T01:06:27;73.68;;;28.48;;
58974;SDS011;44751;52.236;5.178;2022-12-10T01:08:59;75.53;;;27.08;;
58974;SDS011;44751;52.236;5.178;2022-12-10T01:11:29;70.18;;;26.20;;
58974;SDS011;44751;52.236;5.178;2022-12-10T01:13:57;60.97;;;25.00;;
58974;SDS011;44751;52.236;5.178;2022-12-10T01:16:28;68.85;;;25.17;;
58974;SDS011;44751;52.236;5.178;2022-12-10T01:18:56;67.85;;;25.92;;
58974;SDS011;44751;52.236;5.178;2022-12-10T01:21:24;66.57;;;24.50;;
58974;SDS011;44751;52.236;5.178;2022-12-10T01:23:51;70.88;;;25.05;;
58974;SDS011;44751;52.236;5.178;2022-12-10T01:26:24;67.13;;;25.55;;
58974;SDS011;44751;52.236;5.178;2022-12-10T01:28:54;73.57;;;25.33;;
58974;SDS011;44751;52.236;5.178;2022-12-10T01:31:31;68.88;;;26.60;;
58974;SDS011;44751;52.236;5.178;2022-12-10T01:33:59;73.15;;;25.88;;
58974;SDS011;44751;52.236;5.178;2022-12-10T01:36:27;73.68;;;24.90;;
58974;SDS011;44751;52.236;5.178;2022-12-10T01:38:56;83.70;;;24.08;;
58974;SDS011;44751;52.236;5.178;2022-12-10T01:41:27;68.63;;;22.10;;
58974;SDS011;44751;52.236;5.178;2022-12-10T01:46:31;66.88;;;20.67;;
58974;SDS011;44751;52.236;5.178;2022-12-10T01:49:00;81.00;;;21.48;;
58974;SDS011;44751;52.236;5.178;2022-12-10T01:51:36;96.53;;;22.17;;
58974;SDS011;44751;52.236;5.178;2022-12-10T01:54:15;91.13;;;21.25;;
58974;SDS011;44751;52.236;5.178;2022-12-10T01:56:45;75.68;;;21.23;;
58974;SDS011;44751;52.236;5.178;2022-12-10T02:07:01;70.30;;;22.63;;
58974;SDS011;44751;52.236;5.178;2022-12-10T02:09:41;65.28;;;21.88;;
58974;SDS011;44751;52.236;5.178;2022-12-10T02:15:12;86.60;;;22.02;;
58974;SDS011;44751;52.236;5.178;2022-12-10T02:17:48;56.33;;;21.75;;
58974;SDS011;44751;52.236;5.178;2022-12-10T02:22:58;79.45;;;22.90;;
58974;SDS011;44751;52.236;5.178;2022-12-10T02:31:03;114.10;;;24.42;;
58974;SDS011;44751;52.236;5.178;2022-12-10T02:33:31;93.80;;;24.88;;
58974;SDS011;44751;52.236;5.178;2022-12-10T02:35:59;108.63;;;26.33;;
58974;SDS011;44751;52.236;5.178;2022-12-10T02:38:32;89.22;;;25.85;;
58974;SDS011;44751;52.236;5.178;2022-12-10T02:41:02;110.93;;;28.17;;
58974;SDS011;44751;52.236;5.178;2022-12-10T02:43:32;80.40;;;25.27;;
58974;SDS011;44751;52.236;5.178;2022-12-10T02:46:00;95.32;;;26.05;;
58974;SDS011;44751;52.236;5.178;2022-12-10T02:48:30;115.22;;;26.48;;
58974;SDS011;44751;52.236;5.178;2022-12-10T02:50:58;106.28;;;27.42;;
58974;SDS011;44751;52.236;5.178;2022-12-10T02:53:25;101.53;;;25.92;;
58974;SDS011;44751;52.236;5.178;2022-12-10T02:55:58;77.50;;;26.52;;
58974;SDS011;44751;52.236;5.178;2022-12-10T02:59:00;114.25;;;27.10;;
58974;SDS011;44751;52.236;5.178;2022-12-10T03:04:23;109.30;;;26.20;;
58974;SDS011;44751;52.236;5.178;2022-12-10T03:07:04;76.80;;;26.05;;
58974;SDS011;44751;52.236;5.178;2022-12-10T03:09:38;116.45;;;27.67;;
58974;SDS011;44751;52.236;5.178;2022-12-10T03:12:46;107.80;;;27.48;;
58974;SDS011;44751;52.236;5.178;2022-12-10T03:15:08;75.40;;;25.52;;
58974;SDS011;44751;52.236;5.178;2022-12-10T03:17:37;91.50;;;25.95;;
58974;SDS011;44751;52.236;5.178;2022-12-10T03:20:06;80.38;;;24.92;;
58974;SDS011;44751;52.236;5.178;2022-12-10T03:22:34;125.03;;;27.08;;
58974;SDS011;44751;52.236;5.178;2022-12-10T03:25:05;147.23;;;28.17;;
58974;SDS011;44751;52.236;5.178;2022-12-10T03:27:33;120.18;;;27.38;;
58974;SDS011;44751;52.236;5.178;2022-12-10T03:30:03;117.10;;;26.30;;
58974;SDS011;44751;52.236;5.178;2022-12-10T03:32:40;142.90;;;28.35;;
58974;SDS011;44751;52.236;5.178;2022-12-10T03:35:08;125.03;;;26.88;;
58974;SDS011;44751;52.236;5.178;2022-12-10T03:37:37;103.68;;;23.77;;
58974;SDS011;44751;52.236;5.178;2022-12-10T03:40:04;128.48;;;28.58;;
58974;SDS011;44751;52.236;5.178;2022-12-10T03:42:33;156.70;;;28.58;;
58974;SDS011;44751;52.236;5.178;2022-12-10T03:45:02;95.13;;;25.80;;
58974;SDS011;44751;52.236;5.178;2022-12-10T03:47:29;77.15;;;23.83;;
58974;SDS011;44751;52.236;5.178;2022-12-10T03:50:02;99.33;;;25.37;;
58974;SDS011;44751;52.236;5.178;2022-12-10T03:52:29;118.32;;;26.50;;
58974;SDS011;44751;52.236;5.178;2022-12-10T03:54:55;120.65;;;27.58;;
58974;SDS011;44751;52.236;5.178;2022-12-10T03:57:22;147.00;;;27.25;;
58974;SDS011;44751;52.236;5.178;2022-12-10T03:59:48;234.50;;;30.73;;
58974;SDS011;44751;52.236;5.178;2022-12-10T04:02:15;123.10;;;26.00;;
58974;SDS011;44751;52.236;5.178;2022-12-10T04:04:42;225.75;;;30.27;;
58974;SDS011;44751;52.236;5.178;2022-12-10T04:07:09;150.00;;;27.52;;
58974;SDS011;44751;52.236;5.178;2022-12-10T04:09:35;114.53;;;28.00;;
58974;SDS011;44751;52.236;5.178;2022-12-10T04:12:02;139.35;;;27.35;;
58974;SDS011;44751;52.236;5.178;2022-12-10T04:14:29;137.20;;;28.75;;
58974;SDS011;44751;52.236;5.178;2022-12-10T04:17:13;166.80;;;27.83;;
58974;SDS011;44751;52.236;5.178;2022-12-10T04:19:39;132.82;;;27.35;;
58974;SDS011;44751;52.236;5.178;2022-12-10T04:22:07;162.57;;;28.83;;
58974;SDS011;44751;52.236;5.178;2022-12-10T04:24:52;191.60;;;29.05;;
58974;SDS011;44751;52.236;5.178;2022-12-10T04:27:36;147.40;;;28.20;;
58974;SDS011;44751;52.236;5.178;2022-12-10T04:30:05;184.07;;;28.10;;
58974;SDS011;44751;52.236;5.178;2022-12-10T04:32:33;129.50;;;26.15;;
58974;SDS011;44751;52.236;5.178;2022-12-10T04:35:00;115.82;;;26.55;;
58974;SDS011;44751;52.236;5.178;2022-12-10T04:37:27;150.65;;;28.15;;
58974;SDS011;44751;52.236;5.178;2022-12-10T04:39:56;121.05;;;26.00;;
58974;SDS011;44751;52.236;5.178;2022-12-10T04:42:23;115.93;;;27.52;;
58974;SDS011;44751;52.236;5.178;2022-12-10T04:44:49;117.75;;;28.75;;
58974;SDS011;44751;52.236;5.178;2022-12-10T04:47:16;147.70;;;28.52;;
58974;SDS011;44751;52.236;5.178;2022-12-10T04:49:44;111.93;;;27.23;;
58974;SDS011;44751;52.236;5.178;2022-12-10T04:52:14;142.13;;;27.65;;
58974;SDS011;44751;52.236;5.178;2022-12-10T04:54:42;133.20;;;26.92;;
58974;SDS011;44751;52.236;5.178;2022-12-10T04:57:09;217.65;;;29.45;;
58974;SDS011;44751;52.236;5.178;2022-12-10T04:59:37;63.20;;;24.63;;
58974;SDS011;44751;52.236;5.178;2022-12-10T05:02:04;101.18;;;27.35;;
58974;SDS011;44751;52.236;5.178;2022-12-10T05:04:30;103.13;;;26.70;;
58974;SDS011;44751;52.236;5.178;2022-12-10T05:06:57;82.20;;;25.63;;
58974;SDS011;44751;52.236;5.178;2022-12-10T05:09:23;85.70;;;26.10;;
58974;SDS011;44751;52.236;5.178;2022-12-10T05:11:50;102.75;;;29.00;;
58974;SDS011;44751;52.236;5.178;2022-12-10T05:14:16;90.20;;;25.95;;
58974;SDS011;44751;52.236;5.178;2022-12-10T05:16:43;85.40;;;26.98;;
58974;SDS011;44751;52.236;5.178;2022-12-10T05:19:10;103.45;;;26.92;;
58974;SDS011;44751;52.236;5.178;2022-12-10T05:21:37;97.35;;;27.85;;
58974;SDS011;44751;52.236;5.178;2022-12-10T05:24:21;156.65;;;30.38;;
58974;SDS011;44751;52.236;5.178;2022-12-10T05:26:47;168.60;;;29.92;;
58974;SDS011;44751;52.236;5.178;2022-12-10T05:29:16;98.72;;;27.17;;
58974;SDS011;44751;52.236;5.178;2022-12-10T05:31:42;93.25;;;26.38;;
58974;SDS011;44751;52.236;5.178;2022-12-10T05:34:09;135.98;;;28.17;;
58974;SDS011;44751;52.236;5.178;2022-12-10T05:36:39;136.98;;;26.55;;
58974;SDS011;44751;52.236;5.178;2022-12-10T05:39:06;77.53;;;27.23;;
58974;SDS011;44751;52.236;5.178;2022-12-10T05:41:35;114.43;;;28.10;;
58974;SDS011;44751;52.236;5.178;2022-12-10T05:44:02;107.10;;;27.75;;
58974;SDS011;44751;52.236;5.178;2022-12-10T05:46:30;113.85;;;28.02;;
58974;SDS011;44751;52.236;5.178;2022-12-10T05:48:59;69.00;;;24.38;;
58974;SDS011;44751;52.236;5.178;2022-12-10T05:51:27;85.43;;;26.02;;
58974;SDS011;44751;52.236;5.178;2022-12-10T05:53:56;81.82;;;25.30;;
58974;SDS011;44751;52.236;5.178;2022-12-10T05:56:24;67.82;;;23.65;;
58974;SDS011;44751;52.236;5.178;2022-12-10T05:58:53;131.27;;;24.52;;
58974;SDS011;44751;52.236;5.178;2022-12-10T06:01:23;76.72;;;23.77;;
58974;SDS011;44751;52.236;5.178;2022-12-10T06:03:51;67.25;;;23.17;;
58974;SDS011;44751;52.236;5.178;2022-12-10T06:06:22;69.68;;;22.63;;
58974;SDS011;44751;52.236;5.178;2022-12-10T06:08:49;61.15;;;22.83;;
58974;SDS011;44751;52.236;5.178;2022-12-10T06:11:17;57.00;;;21.73;;
58974;SDS011;44751;52.236;5.178;2022-12-10T06:13:44;72.25;;;22.95;;
58974;SDS011;44751;52.236;5.178;2022-12-10T06:16:11;68.38;;;22.40;;
58974;SDS011;44751;52.236;5.178;2022-12-10T06:18:39;81.18;;;23.10;;
58974;SDS011;44751;52.236;5.178;2022-12-10T06:21:07;100.25;;;24.70;;
58974;SDS011;44751;52.236;5.178;2022-12-10T06:23:40;80.28;;;23.77;;
58974;SDS011;44751;52.236;5.178;2022-12-10T06:26:08;66.90;;;22.35;;
58974;SDS011;44751;52.236;5.178;2022-12-10T06:28:37;62.63;;;24.35;;
58974;SDS011;44751;52.236;5.178;2022-12-10T06:31:04;72.80;;;24.40;;
58974;SDS011;44751;52.236;5.178;2022-12-10T06:33:33;72.95;;;22.50;;
58974;SDS011;44751;52.236;5.178;2022-12-10T06:35:59;64.32;;;24.10;;
58974;SDS011;44751;52.236;5.178;2022-12-10T06:38:30;74.70;;;23.70;;
58974;SDS011;44751;52.236;5.178;2022-12-10T06:40:56;82.40;;;23.75;;
58974;SDS011;44751;52.236;5.178;2022-12-10T06:43:23;73.32;;;23.52;;
58974;SDS011;44751;52.236;5.178;2022-12-10T06:45:49;66.68;;;22.60;;
58974;SDS011;44751;52.236;5.178;2022-12-10T06:48:16;78.53;;;23.15;;
58974;SDS011;44751;52.236;5.178;2022-12-10T06:50:42;63.42;;;22.42;;
58974;SDS011;44751;52.236;5.178;2022-12-10T06:53:08;90.40;;;22.88;;
58974;SDS011;44751;52.236;5.178;2022-12-10T06:55:36;63.20;;;21.55;;
58974;SDS011;44751;52.236;5.178;2022-12-10T06:58:03;73.75;;;21.17;;
58974;SDS011;44751;52.236;5.178;2022-12-10T07:00:36;48.67;;;15.93;;
58974;SDS011;44751;52.236;5.178;2022-12-10T07:03:02;56.55;;;19.88;;
58974;SDS011;44751;52.236;5.178;2022-12-10T07:05:29;65.78;;;22.60;;
58974;SDS011;44751;52.236;5.178;2022-12-10T07:07:56;70.82;;;20.25;;
58974;SDS011;44751;52.236;5.178;2022-12-10T07:10:22;59.97;;;20.58;;
58974;SDS011;44751;52.236;5.178;2022-12-10T07:12:48;53.35;;;19.90;;
58974;SDS011;44751;52.236;5.178;2022-12-10T07:15:15;68.05;;;20.73;;
58974;SDS011;44751;52.236;5.178;2022-12-10T07:17:41;71.40;;;20.98;;
58974;SDS011;44751;52.236;5.178;2022-12-10T07:20:08;63.45;;;21.95;;
58974;SDS011;44751;52.236;5.178;2022-12-10T07:22:36;56.70;;;20.52;;
58974;SDS011;44751;52.236;5.178;2022-12-10T07:25:03;80.60;;;22.40;;
58974;SDS011;44751;52.236;5.178;2022-12-10T07:27:30;73.80;;;20.23;;
58974;SDS011;44751;52.236;5.178;2022-12-10T07:29:57;54.13;;;20.73;;
58974;SDS011;44751;52.236;5.178;2022-12-10T07:32:23;67.00;;;20.88;;
58974;SDS011;44751;52.236;5.178;2022-12-10T07:34:50;64.18;;;21.08;;
58974;SDS011;44751;52.236;5.178;2022-12-10T07:37:16;60.28;;;21.85;;
58974;SDS011;44751;52.236;5.178;2022-12-10T07:39:42;55.47;;;20.75;;
58974;SDS011;44751;52.236;5.178;2022-12-10T07:42:09;62.60;;;21.13;;
58974;SDS011;44751;52.236;5.178;2022-12-10T07:44:36;94.95;;;24.48;;
58974;SDS011;44751;52.236;5.178;2022-12-10T07:47:02;87.93;;;23.08;;
58974;SDS011;44751;52.236;5.178;2022-12-10T07:49:29;72.55;;;21.15;;
58974;SDS011;44751;52.236;5.178;2022-12-10T07:51:56;58.63;;;20.58;;
58974;SDS011;44751;52.236;5.178;2022-12-10T07:54:23;78.47;;;20.50;;
58974;SDS011;44751;52.236;5.178;2022-12-10T07:56:49;51.22;;;20.52;;
58974;SDS011;44751;52.236;5.178;2022-12-10T07:59:16;62.20;;;21.00;;
58974;SDS011;44751;52.236;5.178;2022-12-10T08:01:42;59.15;;;20.17;;
58974;SDS011;44751;52.236;5.178;2022-12-10T08:04:09;67.53;;;20.35;;
58974;SDS011;44751;52.236;5.178;2022-12-10T08:06:35;52.53;;;19.88;;
58974;SDS011;44751;52.236;5.178;2022-12-10T08:09:02;82.10;;;20.67;;
58974;SDS011;44751;52.236;5.178;2022-12-10T08:11:28;70.10;;;21.55;;
58974;SDS011;44751;52.236;5.178;2022-12-10T08:13:55;68.75;;;21.52;;
58974;SDS011;44751;52.236;5.178;2022-12-10T08:16:22;53.80;;;21.25;;
58974;SDS011;44751;52.236;5.178;2022-12-10T08:18:51;52.03;;;21.35;;
58974;SDS011;44751;52.236;5.178;2022-12-10T08:21:18;65.03;;;21.63;;
58974;SDS011;44751;52.236;5.178;2022-12-10T08:23:46;69.03;;;22.35;;
58974;SDS011;44751;52.236;5.178;2022-12-10T08:26:14;45.78;;;20.65;;
58974;SDS011;44751;52.236;5.178;2022-12-10T08:28:46;41.05;;;16.50;;
58974;SDS011;44751;52.236;5.178;2022-12-10T08:31:14;46.70;;;20.73;;
58974;SDS011;44751;52.236;5.178;2022-12-10T08:33:42;55.63;;;20.33;;
58974;SDS011;44751;52.236;5.178;2022-12-10T08:36:10;54.10;;;20.40;;
58974;SDS011;44751;52.236;5.178;2022-12-10T08:38:38;61.65;;;20.85;;
58974;SDS011;44751;52.236;5.178;2022-12-10T08:41:13;51.63;;;20.70;;
58974;SDS011;44751;52.236;5.178;2022-12-10T08:43:44;47.42;;;20.85;;
58974;SDS011;44751;52.236;5.178;2022-12-10T08:46:15;47.97;;;20.33;;
58974;SDS011;44751;52.236;5.178;2022-12-10T08:48:42;46.50;;;19.30;;
58974;SDS011;44751;52.236;5.178;2022-12-10T08:51:10;48.10;;;20.33;;
58974;SDS011;44751;52.236;5.178;2022-12-10T08:53:40;55.97;;;20.90;;
58974;SDS011;44751;52.236;5.178;2022-12-10T08:56:06;60.30;;;22.17;;
58974;SDS011;44751;52.236;5.178;2022-12-10T08:58:33;89.57;;;23.15;;
58974;SDS011;44751;52.236;5.178;2022-12-10T09:00:59;59.38;;;23.23;;
58974;SDS011;44751;52.236;5.178;2022-12-10T09:03:33;65.53;;;21.85;;
58974;SDS011;44751;52.236;5.178;2022-12-10T09:06:07;55.30;;;21.15;;
58974;SDS011;44751;52.236;5.178;2022-12-10T09:08:35;65.22;;;22.80;;
58974;SDS011;44751;52.236;5.178;2022-12-10T09:11:10;71.72;;;22.70;;
58974;SDS011;44751;52.236;5.178;2022-12-10T09:13:39;50.63;;;20.58;;
58974;SDS011;44751;52.236;5.178;2022-12-10T09:16:05;60.03;;;21.95;;
58974;SDS011;44751;52.236;5.178;2022-12-10T09:18:32;56.38;;;21.90;;
58974;SDS011;44751;52.236;5.178;2022-12-10T09:20:59;57.80;;;23.40;;
58974;SDS011;44751;52.236;5.178;2022-12-10T09:23:26;60.90;;;23.48;;
58974;SDS011;44751;52.236;5.178;2022-12-10T09:25:52;74.97;;;23.95;;
58974;SDS011;44751;52.236;5.178;2022-12-10T09:28:19;59.28;;;21.48;;
58974;SDS011;44751;52.236;5.178;2022-12-10T09:30:50;67.20;;;22.77;;
58974;SDS011;44751;52.236;5.178;2022-12-10T09:33:24;57.28;;;23.85;;
58974;SDS011;44751;52.236;5.178;2022-12-10T09:35:51;58.55;;;22.73;;
58974;SDS011;44751;52.236;5.178;2022-12-10T09:38:18;57.20;;;23.90;;
58974;SDS011;44751;52.236;5.178;2022-12-10T09:40:46;82.72;;;24.38;;
58974;SDS011;44751;52.236;5.178;2022-12-10T09:51:36;52.43;;;18.70;;
58974;SDS011;44751;52.236;5.178;2022-12-10T09:57:26;71.10;;;24.13;;
58974;SDS011;44751;52.236;5.178;2022-12-10T09:59:55;64.15;;;25.00;;
58974;SDS011;44751;52.236;5.178;2022-12-10T10:02:33;66.43;;;24.20;;
58974;SDS011;44751;52.236;5.178;2022-12-10T10:07:34;67.50;;;23.80;;
58974;SDS011;44751;52.236;5.178;2022-12-10T10:10:09;69.97;;;25.17;;
58974;SDS011;44751;52.236;5.178;2022-12-10T10:13:20;63.75;;;24.50;;
58974;SDS011;44751;52.236;5.178;2022-12-10T10:15:47;60.72;;;22.90;;
58974;SDS011;44751;52.236;5.178;2022-12-10T10:18:50;68.03;;;25.58;;
58974;SDS011;44751;52.236;5.178;2022-12-10T10:21:15;64.50;;;23.42;;
58974;SDS011;44751;52.236;5.178;2022-12-10T10:23:49;59.45;;;22.13;;
58974;SDS011;44751;52.236;5.178;2022-12-10T10:26:17;67.63;;;23.83;;
58974;SDS011;44751;52.236;5.178;2022-12-10T10:28:44;77.85;;;25.08;;
58974;SDS011;44751;52.236;5.178;2022-12-10T10:31:24;71.32;;;26.13;;
58974;SDS011;44751;52.236;5.178;2022-12-10T10:33:59;70.82;;;24.67;;
58974;SDS011;44751;52.236;5.178;2022-12-10T10:36:29;93.50;;;26.10;;
58974;SDS011;44751;52.236;5.178;2022-12-10T10:39:10;75.47;;;25.77;;
58974;SDS011;44751;52.236;5.178;2022-12-10T10:41:43;81.68;;;27.58;;
58974;SDS011;44751;52.236;5.178;2022-12-10T10:44:35;86.70;;;26.40;;
58974;SDS011;44751;52.236;5.178;2022-12-10T10:47:38;68.25;;;26.15;;
58974;SDS011;44751;52.236;5.178;2022-12-10T10:52:29;68.13;;;24.75;;
58974;SDS011;44751;52.236;5.178;2022-12-10T10:55:00;85.13;;;24.90;;
58974;SDS011;44751;52.236;5.178;2022-12-10T10:57:29;72.25;;;25.77;;
58974;SDS011;44751;52.236;5.178;2022-12-10T11:00:04;66.45;;;24.15;;
58974;SDS011;44751;52.236;5.178;2022-12-10T11:02:37;71.28;;;25.52;;
58974;SDS011;44751;52.236;5.178;2022-12-10T11:05:17;72.80;;;26.02;;
58974;SDS011;44751;52.236;5.178;2022-12-10T11:07:46;76.32;;;25.95;;
58974;SDS011;44751;52.236;5.178;2022-12-10T11:10:18;73.07;;;25.40;;
58974;SDS011;44751;52.236;5.178;2022-12-10T11:12:53;76.65;;;25.25;;
58974;SDS011;44751;52.236;5.178;2022-12-10T11:17:50;73.95;;;25.33;;
58974;SDS011;44751;52.236;5.178;2022-12-10T11:20:22;89.07;;;26.08;;
58974;SDS011;44751;52.236;5.178;2022-12-10T11:22:55;65.00;;;24.13;;
58974;SDS011;44751;52.236;5.178;2022-12-10T11:48:01;66.18;;;22.98;;
58974;SDS011;44751;52.236;5.178;2022-12-10T11:50:57;65.45;;;22.85;;
58974;SDS011;44751;52.236;5.178;2022-12-10T11:53:38;71.10;;;24.33;;
58974;SDS011;44751;52.236;5.178;2022-12-10T11:56:24;85.22;;;25.83;;
58974;SDS011;44751;52.236;5.178;2022-12-10T11:59:02;74.72;;;24.50;;
58974;SDS011;44751;52.236;5.178;2022-12-10T12:01:59;84.28;;;26.25;;
58974;SDS011;44751;52.236;5.178;2022-12-10T12:10:09;82.53;;;25.70;;
58974;SDS011;44751;52.236;5.178;2022-12-10T12:12:42;86.07;;;27.35;;
58974;SDS011;44751;52.236;5.178;2022-12-10T12:15:32;84.20;;;26.30;;
58974;SDS011;44751;52.236;5.178;2022-12-10T12:18:14;85.30;;;26.08;;
58974;SDS011;44751;52.236;5.178;2022-12-10T12:20:58;63.90;;;22.92;;
58974;SDS011;44751;52.236;5.178;2022-12-10T12:23:31;79.35;;;25.52;;
58974;SDS011;44751;52.236;5.178;2022-12-10T12:26:11;78.90;;;25.13;;
58974;SDS011;44751;52.236;5.178;2022-12-10T12:28:56;79.85;;;24.92;;
58974;SDS011;44751;52.236;5.178;2022-12-10T12:31:37;77.13;;;24.95;;
58974;SDS011;44751;52.236;5.178;2022-12-10T12:34:21;80.53;;;24.48;;
58974;SDS011;44751;52.236;5.178;2022-12-10T12:36:53;75.88;;;24.05;;
58974;SDS011;44751;52.236;5.178;2022-12-10T12:39:26;74.15;;;23.98;;
58974;SDS011;44751;52.236;5.178;2022-12-10T12:45:14;84.18;;;23.42;;
58974;SDS011;44751;52.236;5.178;2022-12-10T12:47:56;75.18;;;22.90;;
58974;SDS011;44751;52.236;5.178;2022-12-10T12:50:45;58.75;;;19.98;;
58974;SDS011;44751;52.236;5.178;2022-12-10T12:53:19;62.60;;;21.33;;
58974;SDS011;44751;52.236;5.178;2022-12-10T13:01:31;74.78;;;23.30;;
58974;SDS011;44751;52.236;5.178;2022-12-10T13:04:13;73.07;;;22.98;;
58974;SDS011;44751;52.236;5.178;2022-12-10T13:06:41;77.40;;;22.17;;
58974;SDS011;44751;52.236;5.178;2022-12-10T13:11:42;55.53;;;19.60;;
58974;SDS011;44751;52.236;5.178;2022-12-10T13:14:14;59.00;;;20.05;;
58974;SDS011;44751;52.236;5.178;2022-12-10T13:16:59;62.22;;;19.80;;
58974;SDS011;44751;52.236;5.178;2022-12-10T13:19:29;65.80;;;19.77;;
58974;SDS011;44751;52.236;5.178;2022-12-10T13:22:10;57.15;;;19.48;;
58974;SDS011;44751;52.236;5.178;2022-12-10T13:35:15;64.70;;;22.98;;
58974;SDS011;44751;52.236;5.178;2022-12-10T13:40:27;73.03;;;21.27;;
58974;SDS011;44751;52.236;5.178;2022-12-10T13:43:24;56.55;;;19.85;;
58974;SDS011;44751;52.236;5.178;2022-12-10T13:48:51;56.65;;;20.67;;
58974;SDS011;44751;52.236;5.178;2022-12-10T13:51:57;67.63;;;19.55;;
58974;SDS011;44751;52.236;5.178;2022-12-10T13:54:22;64.75;;;20.15;;
58974;SDS011;44751;52.236;5.178;2022-12-10T13:57:28;62.10;;;20.63;;
58974;SDS011;44751;52.236;5.178;2022-12-10T14:00:17;67.50;;;20.20;;
58974;SDS011;44751;52.236;5.178;2022-12-10T14:05:42;58.28;;;18.45;;
58974;SDS011;44751;52.236;5.178;2022-12-10T14:08:34;54.33;;;20.10;;
58974;SDS011;44751;52.236;5.178;2022-12-10T14:11:04;57.72;;;19.05;;
58974;SDS011;44751;52.236;5.178;2022-12-10T14:13:36;67.22;;;18.35;;
58974;SDS011;44751;52.236;5.178;2022-12-10T14:16:10;65.72;;;19.20;;
58974;SDS011;44751;52.236;5.178;2022-12-10T14:18:37;57.00;;;20.17;;
58974;SDS011;44751;52.236;5.178;2022-12-10T14:21:07;65.60;;;18.70;;
58974;SDS011;44751;52.236;5.178;2022-12-10T14:23:46;44.03;;;15.73;;
58974;SDS011;44751;52.236;5.178;2022-12-10T14:26:15;66.55;;;21.05;;
58974;SDS011;44751;52.236;5.178;2022-12-10T14:28:46;68.47;;;21.13;;
58974;SDS011;44751;52.236;5.178;2022-12-10T14:31:21;64.45;;;20.55;;
58974;SDS011;44751;52.236;5.178;2022-12-10T14:34:00;72.43;;;21.15;;
58974;SDS011;44751;52.236;5.178;2022-12-10T14:36:33;67.72;;;19.65;;
58974;SDS011;44751;52.236;5.178;2022-12-10T14:39:03;92.63;;;22.45;;
58974;SDS011;44751;52.236;5.178;2022-12-10T14:41:40;66.60;;;20.33;;
58974;SDS011;44751;52.236;5.178;2022-12-10T14:44:08;71.85;;;21.27;;
58974;SDS011;44751;52.236;5.178;2022-12-10T14:46:39;80.90;;;21.88;;
58974;SDS011;44751;52.236;5.178;2022-12-10T14:49:08;67.45;;;20.85;;
58974;SDS011;44751;52.236;5.178;2022-12-10T14:51:42;81.65;;;22.52;;
58974;SDS011;44751;52.236;5.178;2022-12-10T14:54:29;131.30;;;24.58;;
58974;SDS011;44751;52.236;5.178;2022-12-10T14:56:59;96.05;;;23.50;;
58974;SDS011;44751;52.236;5.178;2022-12-10T14:59:31;72.72;;;22.95;;
58974;SDS011;44751;52.236;5.178;2022-12-10T15:05:01;99.63;;;24.35;;
58974;SDS011;44751;52.236;5.178;2022-12-10T15:07:31;75.40;;;24.85;;
58974;SDS011;44751;52.236;5.178;2022-12-10T15:10:02;74.93;;;23.60;;
58974;SDS011;44751;52.236;5.178;2022-12-10T15:15:14;78.50;;;24.30;;
58974;SDS011;44751;52.236;5.178;2022-12-10T15:17:55;82.57;;;24.58;;
58974;SDS011;44751;52.236;5.178;2022-12-10T15:20:43;69.53;;;23.60;;
58974;SDS011;44751;52.236;5.178;2022-12-10T15:28:24;97.30;;;25.17;;
58974;SDS011;44751;52.236;5.178;2022-12-10T15:34:06;89.30;;;25.13;;
58974;SDS011;44751;52.236;5.178;2022-12-10T15:36:36;78.97;;;24.38;;
58974;SDS011;44751;52.236;5.178;2022-12-10T15:44:17;80.20;;;24.27;;
58974;SDS011;44751;52.236;5.178;2022-12-10T15:46:58;87.82;;;25.30;;
58974;SDS011;44751;52.236;5.178;2022-12-10T15:49:30;71.63;;;22.10;;
58974;SDS011;44751;52.236;5.178;2022-12-10T15:51:57;82.13;;;24.92;;
58974;SDS011;44751;52.236;5.178;2022-12-10T15:54:28;85.43;;;25.38;;
58974;SDS011;44751;52.236;5.178;2022-12-10T15:56:59;127.87;;;34.20;;
58974;SDS011;44751;52.236;5.178;2022-12-10T15:59:27;82.32;;;26.98;;
58974;SDS011;44751;52.236;5.178;2022-12-10T16:02:00;101.95;;;25.88;;
58974;SDS011;44751;52.236;5.178;2022-12-10T16:04:28;71.95;;;23.02;;
58974;SDS011;44751;52.236;5.178;2022-12-10T16:06:54;92.13;;;24.58;;
58974;SDS011;44751;52.236;5.178;2022-12-10T16:09:21;91.80;;;25.90;;
58974;SDS011;44751;52.236;5.178;2022-12-10T16:11:47;81.38;;;24.48;;
58974;SDS011;44751;52.236;5.178;2022-12-10T16:14:14;118.65;;;26.45;;
58974;SDS011;44751;52.236;5.178;2022-12-10T16:16:40;93.95;;;25.23;;
58974;SDS011;44751;52.236;5.178;2022-12-10T16:19:09;99.05;;;25.23;;
58974;SDS011;44751;52.236;5.178;2022-12-10T16:21:37;85.47;;;24.25;;
58974;SDS011;44751;52.236;5.178;2022-12-10T16:24:03;88.63;;;24.50;;
58974;SDS011;44751;52.236;5.178;2022-12-10T16:26:30;89.65;;;25.08;;
58974;SDS011;44751;52.236;5.178;2022-12-10T16:28:57;63.63;;;22.27;;
58974;SDS011;44751;52.236;5.178;2022-12-10T16:31:23;73.50;;;23.08;;
58974;SDS011;44751;52.236;5.178;2022-12-10T16:33:49;78.85;;;24.20;;
58974;SDS011;44751;52.236;5.178;2022-12-10T16:36:18;78.18;;;23.95;;
58974;SDS011;44751;52.236;5.178;2022-12-10T16:38:45;72.50;;;22.55;;
58974;SDS011;44751;52.236;5.178;2022-12-10T16:41:21;72.95;;;24.00;;
58974;SDS011;44751;52.236;5.178;2022-12-10T16:43:49;77.93;;;24.02;;